KCBF/CBF METAR and TAF weather

Enter ICAO airport designator
Station Type Date Time Source
KCBF METAR 2021/04/17 03:15 UTC NOAA

KCBF 170315Z AUTO 24003KT 5SM -RA OVC029 05/05 A3005 RMK AO2


Station Type Date Time Source
KCBF Decoded METAR 2021/04/17 03:15 UTC NOAA

Council Bluffs, IA, United States (KCBF) 41-16N 095-46W
Apr 16, 2021 - 11:15 PM EDT / 2021.04.17 0315 UTC
Wind: from the WSW (240 degrees) at 3 MPH (3 KT):0
Visibility: 5 mile(s):0
Sky conditions: overcast
Weather: light rain
Temperature: 41 F (5 C)
Dew Point: 41 F (5 C)
Relative Humidity: 100%
Pressure (altimeter): 30.05 in. Hg (1017 hPa)
ob: KCBF 170315Z AUTO 24003KT 5SM -RA OVC029 05/05 A3005 RMK AO2
cycle: 3

Station Type Date Time Source
KCBF TAF UTC NOAA

Error!

Example: see airport list